createdAt,value
2022-10-02T11:39:12.993Z,67.78
2022-10-02T11:42:18.711Z,65.17
2022-10-02T11:45:37.098Z,65.21
2022-10-02T11:48:36.041Z,66.10
2022-10-02T11:51:32.687Z,65.71
2022-10-02T11:54:17.655Z,66.45
2022-10-02T11:57:02.061Z,67.45
2022-10-02T11:59:53.864Z,69.65
2022-10-02T12:03:02.138Z,69.46
2022-10-02T12:06:02.833Z,68.37
2022-10-02T12:08:51.520Z,69.08
2022-10-02T12:11:46.414Z,70.03
2022-10-02T12:14:44.823Z,68.89
2022-10-02T12:17:11.701Z,70.78
2022-10-02T12:20:37.254Z,68.76
2022-10-02T12:24:04.031Z,71.47
2022-10-02T12:27:09.734Z,70.20
2022-10-02T12:30:07.589Z,70.21
2022-10-02T12:33:28.037Z,69.79
2022-10-02T12:36:35.732Z,69.08
2022-10-02T12:39:39.353Z,70.44
2022-10-02T12:42:40.956Z,69.61
2022-10-02T12:45:44.009Z,69.49
2022-10-02T12:49:04.013Z,69.12
2022-10-02T12:51:36.021Z,71.24
2022-10-02T12:54:33.650Z,70.47
2022-10-02T12:57:51.342Z,69.43
2022-10-02T13:00:37.876Z,71.48
2022-10-02T13:03:36.543Z,71.87
2022-10-02T13:06:22.774Z,71.02
2022-10-02T13:09:05.145Z,72.28
2022-10-02T13:12:22.008Z,70.58
2022-10-02T13:15:07.151Z,70.38
2022-10-02T13:18:11.994Z,70.58
2022-10-02T13:21:30.873Z,70.25
2022-10-02T13:24:47.163Z,69.96
2022-10-02T13:28:01.838Z,69.55
2022-10-02T13:30:43.068Z,71.10
2022-10-02T13:33:37.072Z,70.20
2022-10-02T13:36:51.633Z,69.96
2022-10-02T13:40:03.121Z,69.77
2022-10-02T13:42:46.861Z,70.48
2022-10-02T13:45:33.342Z,70.58
2022-10-02T13:48:25.674Z,70.43
2022-10-02T13:51:42.361Z,69.94
2022-10-02T13:54:48.051Z,70.16
2022-10-02T13:57:54.131Z,70.70
2022-10-02T14:01:05.928Z,70.24
2022-10-02T14:04:11.475Z,71.23
2022-10-02T14:07:18.968Z,72.86
2022-10-02T14:10:05.027Z,73.26
2022-10-02T14:13:03.092Z,76.55
2022-10-02T14:15:43.147Z,74.37
2022-10-02T14:18:48.680Z,74.77
2022-10-02T14:21:38.388Z,74.46
2022-10-02T14:24:44.592Z,73.02
2022-10-02T14:27:58.492Z,76.66
2022-10-02T14:30:55.095Z,74.34
2022-10-02T14:34:09.668Z,73.02
2022-10-02T14:37:23.972Z,72.42
2022-10-02T14:39:52.950Z,76.67
2022-10-02T14:42:57.837Z,74.08
2022-10-02T14:45:40.044Z,73.58
2022-10-02T14:48:47.159Z,72.23
2022-10-02T14:51:46.866Z,72.46
2022-10-02T14:55:01.859Z,71.74
2022-10-02T14:58:02.780Z,73.40
2022-10-02T15:00:55.043Z,72.32
2022-10-02T15:03:34.494Z,73.02
2022-10-02T15:06:30.226Z,73.50
2022-10-02T15:09:06.283Z,74.14
2022-10-02T15:11:36.552Z,74.21
2022-10-02T15:14:16.127Z,73.71
2022-10-02T15:17:19.528Z,73.58
2022-10-02T15:20:06.354Z,73.13
2022-10-02T15:22:47.717Z,73.22
2022-10-02T15:25:55.376Z,72.39
2022-10-02T15:28:54.098Z,72.09
2022-10-02T15:32:05.417Z,72.45
2022-10-02T15:34:47.792Z,72.30
2022-10-02T15:37:37.014Z,72.09
2022-10-02T15:40:35.307Z,72.29
2022-10-02T15:43:15.157Z,72.92
2022-10-02T15:46:03.194Z,72.63
2022-10-02T15:48:47.895Z,72.87
2022-10-02T15:51:36.607Z,72.87
2022-10-02T15:54:35.076Z,72.74
2022-10-02T15:57:48.783Z,72.38
2022-10-02T16:00:22.718Z,73.60
2022-10-02T16:03:22.441Z,72.41
2022-10-02T16:06:06.477Z,73.12
2022-10-02T16:09:05.842Z,72.38
2022-10-02T16:12:17.382Z,72.96
2022-10-02T16:14:47.247Z,74.56
2022-10-02T16:17:36.007Z,73.43
2022-10-02T16:20:21.523Z,75.91
2022-10-02T16:23:24.142Z,75.49
2022-10-02T16:26:50.896Z,73.44
2022-10-02T16:29:42.092Z,75.33
2022-10-02T16:32:54.460Z,75.86
2022-10-02T16:35:43.776Z,75.60
2022-10-02T16:38:51.044Z,73.47
2022-10-02T16:41:48.495Z,74.83
2022-10-02T16:44:57.502Z,74.07
2022-10-02T16:47:45.424Z,77.73
2022-10-02T16:53:59.635Z,77.08
2022-10-02T16:56:49.463Z,76.33
2022-10-02T16:59:32.359Z,77.63
2022-10-02T17:02:18.015Z,81.57
2022-10-02T17:05:45.671Z,79.48
2022-10-02T17:08:45.731Z,78.56
2022-10-02T17:11:37.940Z,80.96
2022-10-02T17:14:41.894Z,82.95
2022-10-02T17:17:51.025Z,79.30
2022-10-02T17:20:33.927Z,79.74
2022-10-02T17:23:37.362Z,80.44
2022-10-02T17:26:14.608Z,80.99
2022-10-02T17:29:01.733Z,79.70
2022-10-02T17:31:58.598Z,79.00
2022-10-02T17:34:49.085Z,78.84
2022-10-02T17:37:44.101Z,78.92
2022-10-02T17:40:31.790Z,80.80
2022-10-02T17:43:37.209Z,78.58
2022-10-02T17:46:31.751Z,82.61
2022-10-02T17:49:26.949Z,81.14
2022-10-02T17:52:57.273Z,84.01
2022-10-02T17:56:12.957Z,84.35
2022-10-02T17:59:12.886Z,80.61
2022-10-02T18:02:07.864Z,80.62
2022-10-02T18:05:25.910Z,80.35
2022-10-02T18:08:16.066Z,80.29
2022-10-02T18:11:33.224Z,81.39
2022-10-02T18:14:26.219Z,85.34
2022-10-02T18:17:15.602Z,83.49
2022-10-02T18:19:42.903Z,85.22
2022-10-02T18:22:33.840Z,81.18
2022-10-02T18:25:23.958Z,78.30
2022-10-02T18:28:21.721Z,80.17
2022-10-02T18:31:50.900Z,80.21
2022-10-02T18:34:53.667Z,81.97
2022-10-02T18:37:27.153Z,82.74
2022-10-02T18:40:28.232Z,81.17
2022-10-02T18:42:55.114Z,77.81
2022-10-02T18:45:40.870Z,79.89
2022-10-02T18:48:51.521Z,79.44
2022-10-02T18:51:45.710Z,79.34
2022-10-02T18:54:46.759Z,79.48
2022-10-02T18:57:38.102Z,77.64
2022-10-02T19:00:21.994Z,77.73
2022-10-02T19:03:00.704Z,82.38
2022-10-02T19:05:32.870Z,83.07
2022-10-02T19:08:17.945Z,82.19
2022-10-02T19:10:46.823Z,84.75
2022-10-02T19:13:28.796Z,83.46
2022-10-02T19:15:58.734Z,84.27
2022-10-02T19:18:32.818Z,83.60
2022-10-02T19:21:13.352Z,82.00
2022-10-02T19:24:01.381Z,81.68
2022-10-02T19:26:34.570Z,83.58
2022-10-02T19:29:26.934Z,80.90
2022-10-02T19:31:58.628Z,84.06
2022-10-02T19:34:31.009Z,84.47
2022-10-02T19:37:04.604Z,84.38
2022-10-02T19:39:42.917Z,83.87
2022-10-02T19:42:40.534Z,80.80
2022-10-02T19:45:24.375Z,84.01
2022-10-02T19:48:06.844Z,83.72
2022-10-02T19:51:01.490Z,80.67
2022-10-02T19:53:50.525Z,81.66
2022-10-02T19:56:34.411Z,83.47
2022-10-02T19:59:41.774Z,80.83
2022-10-02T20:02:40.669Z,80.89
2022-10-02T20:05:19.196Z,83.50
2022-10-02T20:07:49.789Z,85.34
2022-10-02T20:10:45.911Z,81.73
2022-10-02T20:13:26.631Z,83.05
2022-10-02T20:16:45.891Z,79.45
2022-10-02T20:19:29.733Z,83.46
2022-10-02T20:22:02.002Z,84.75
2022-10-02T20:24:58.913Z,80.67
2022-10-02T20:27:46.367Z,82.21
2022-10-02T20:30:18.876Z,84.52
2022-10-02T20:33:15.297Z,80.98
2022-10-02T20:36:16.757Z,82.39
2022-10-02T20:38:52.374Z,84.48
2022-10-02T20:41:29.054Z,83.74
2022-10-02T20:44:04.359Z,85.00
2022-10-02T20:46:35.735Z,84.88
2022-10-02T20:49:40.254Z,81.19
2022-10-02T20:52:46.052Z,80.95
2022-10-02T20:55:30.244Z,82.52
2022-10-02T20:58:34.903Z,81.05
2022-10-02T21:01:28.666Z,81.80
2022-10-02T21:04:39.654Z,80.90
2022-10-02T21:07:18.349Z,84.37
2022-10-02T21:10:16.214Z,81.17
2022-10-02T21:13:24.229Z,81.38
2022-10-02T21:16:36.226Z,81.33
2022-10-02T21:20:14.067Z,80.42
2022-10-02T21:22:47.994Z,84.75
2022-10-02T21:25:44.637Z,81.79
2022-10-02T21:29:06.049Z,81.84
2022-10-02T21:31:51.562Z,84.02
2022-10-02T21:34:49.656Z,83.06
2022-10-02T21:37:36.604Z,82.42
2022-10-02T21:40:37.666Z,81.67
2022-10-02T21:43:23.323Z,81.72
2022-10-02T21:47:00.084Z,81.34
2022-10-02T21:50:16.938Z,81.78
2022-10-02T21:53:19.028Z,83.65
2022-10-02T21:56:20.018Z,81.89
2022-10-02T21:59:30.222Z,81.19
2022-10-02T22:02:48.966Z,83.71
2022-10-02T22:05:34.602Z,83.05
2022-10-02T22:09:01.602Z,84.41
2022-10-02T22:12:14.235Z,84.48
2022-10-02T22:14:58.186Z,88.15
2022-10-02T22:18:04.876Z,86.01
2022-10-02T22:21:21.190Z,84.68
2022-10-02T22:23:56.898Z,86.82
2022-10-02T22:26:32.656Z,86.40
2022-10-02T22:29:13.613Z,84.30
2022-10-02T22:32:29.726Z,80.79
2022-10-02T22:35:52.104Z,82.01
2022-10-02T22:38:56.623Z,84.32
2022-10-02T22:41:30.854Z,85.48
2022-10-02T22:44:16.401Z,83.78
2022-10-02T22:47:09.946Z,83.33
2022-10-02T22:49:50.229Z,83.94
2022-10-02T22:52:47.480Z,82.77
2022-10-02T22:55:21.218Z,85.35
2022-10-02T22:58:18.100Z,84.08
2022-10-02T23:01:48.553Z,82.51
2022-10-02T23:04:38.359Z,82.82
2022-10-02T23:07:44.000Z,83.68
2022-10-02T23:10:45.140Z,83.08
2022-10-02T23:13:16.457Z,80.61
2022-10-02T23:15:59.851Z,84.32
2022-10-02T23:18:45.243Z,82.86
2022-10-02T23:21:55.857Z,82.59
2022-10-02T23:25:00.291Z,83.57
2022-10-02T23:27:57.037Z,83.48
2022-10-02T23:30:24.651Z,85.78
2022-10-02T23:33:19.026Z,83.42
2022-10-02T23:36:03.252Z,84.17
2022-10-02T23:39:02.422Z,82.67
2022-10-02T23:41:48.831Z,83.33
2022-10-02T23:44:55.688Z,82.44
2022-10-02T23:47:46.738Z,85.23
2022-10-02T23:50:48.696Z,80.81
2022-10-02T23:53:41.285Z,82.34
2022-10-02T23:56:40.224Z,84.87
2022-10-02T23:59:34.484Z,82.94
